Nearby METAR Reports

 

KBFI - Boeing Field Seattle, WA, USA
Distance from station: SE 4mi, 7km
Updated: Mon, 16-Jul-2018 12:53pm PDT

 Wind from varies
Wind: varies 6 mph , 9 km/h
Temperature: 82°F , 28°C
Dew Point: 48°F , 9°C
Humidity: 30%
Barometer: 30.01 inHg , 1016.3 hPa
Visibility: 10 miles , 16 km
2018/07/16 19:53 KBFI 161953Z VRB05KT 10SM 28/09 A3001 RMK AO2 SLP162 T02830094 $
KSEA - Seattle/Metro, WA, USA
Distance from station: NE 5mi, 8km
Updated: Mon, 16-Jul-2018 12:53pm PDT
Few Clouds
Few Clouds
 Wind from WNW
Wind: WNW 9 mph , 15 km/h
Temperature: 84°F , 29°C
Dew Point: 50°F , 10°C
Humidity: 31%
Barometer: 30.03 inHg , 1016.9 hPa
Clouds: Few Clouds
Visibility: 10 miles , 16 km
Cloud details: Few Clouds 20000 ft
2018/07/16 19:53 KSEA 161953Z 29008KT 10SM FEW200 29/10 A3003 RMK AO2 SLP171 T02940100
 
KTIW - Tacoma, WA, USA
Distance from station: S 30mi, 45km
Updated: Mon, 16-Jul-2018 12:53pm PDT
Clear
Clear
 Wind from N
Wind: N 7 mph , 11 km/h
Temperature: 82°F , 28°C
Dew Point: 48°F , 9°C
Humidity: 30%
Barometer: 30.02 inHg , 1016.6 hPa
Clouds: Clear
Visibility: 10 miles , 16 km
2018/07/16 19:53 KTIW 161953Z 36006KT 10SM CLR 28/09 A3002 RMK AO2 SLP162 T02780089
KCLM - Port Angeles, WA, USA
Distance from station: NW 70mi, 100km
Updated: Mon, 16-Jul-2018 12:53pm PDT
Clear
Clear
 Wind from E
Wind: E 7 mph , 11 km/h
Temperature: 81°F , 27°C
Dew Point: 46°F , 8°C
Humidity: 30%
Barometer: 30.05 inHg , 1017.6 hPa
Clouds: Clear
Visibility: 10 miles , 16 km
2018/07/16 19:53 KCLM 161953Z AUTO 08006KT 10SM CLR 27/08 A3005 RMK AO2 SLP175 T02670078